KMUI/MUI METAR and TAF weather

Enter ICAO airport designator
Station Type Date Time Source
KMUI METAR 2020/01/17 18:56 UTC NOAA

KMUI 171856Z AUTO 32009KT 10SM CLR M02/M17 A3068 RMK AO2 SLP399 T10201169


Station Type Date Time Source
KMUI Decoded METAR 2020/01/17 18:56 UTC NOAA

Muir Army Air Field / Indiantown, PA, United States (KMUI) 40-26N 076-34W
Jan 17, 2020 - 01:56 PM EST / 2020.01.17 1856 UTC
Wind: from the NW (320 degrees) at 10 MPH (9 KT):0
Visibility: 10 mile(s):0
Sky conditions: clear
Temperature: 28.4 F (-2.0 C)
Windchill: 19 F (-7 C):1
Dew Point: 1.6 F (-16.9 C)
Relative Humidity: 30%
Pressure (altimeter): 30.68 in. Hg (1038 hPa)
ob: KMUI 171856Z AUTO 32009KT 10SM CLR M02/M17 A3068 RMK AO2 SLP399 T10201169
cycle: 19

Station Type Date Time Source
KMUI TAF 2020/01/17 14:12 UTC NOAA

TAF TAF
AMD KMUI 171410Z 1714/1817 35012KT 9999 SCT040 QNH3056INS
TEMPO 1714/1718 35012G25KT 510003
BECMG 1717/1718 35009KT 9999 SKC QNH3066INS
BECMG 1720/1721 VRB06KT 9999 FEW240 QNH3049INS
BECMG 1811/1812 16009KT 9999 FEW080 BKN130 QNH3038INS
BECMG 1814/1815 16012KT 8000 -SN OVC015 620159 QNH3022INS TXM01/1720Z TNM05/1714Z LAST NO
AMDS AFT 1721 NEXT 2111

Example: see airport list